createdAt,value
2022-12-08T00:03:21.376Z,101258.56
2022-12-08T00:08:41.886Z,101258.44
2022-12-08T00:13:44.198Z,101254.84
2022-12-08T00:18:46.415Z,101258.34
2022-12-08T00:23:48.415Z,101249.66
2022-12-08T00:28:50.519Z,101247.09
2022-12-08T00:33:52.485Z,101244.34
2022-12-08T00:38:54.760Z,101239.13
2022-12-08T00:43:56.739Z,101239.13
2022-12-08T00:48:58.899Z,101231.19
2022-12-08T00:54:01.496Z,101229.38
2022-12-08T00:59:07.673Z,101232.13
2022-12-08T01:04:13.252Z,101219.72
2022-12-08T01:09:17.548Z,101211.56
2022-12-08T01:14:19.557Z,101200.94
2022-12-08T01:19:21.681Z,101194.69
2022-12-08T01:24:23.835Z,101192.25
2022-12-08T01:29:27.823Z,101195.00
2022-12-08T01:34:29.783Z,101186.94
2022-12-08T01:39:31.923Z,101197.53
2022-12-08T01:44:34.052Z,101197.53
2022-12-08T01:49:36.958Z,101193.19
2022-12-08T01:54:49.621Z,101192.34
2022-12-08T01:59:57.453Z,101191.38
2022-12-08T02:05:00.317Z,101193.94
2022-12-08T02:10:04.214Z,101184.19
2022-12-08T02:15:06.933Z,101188.53
2022-12-08T02:20:51.978Z,101179.72
2022-12-08T02:26:27.069Z,101164.88
2022-12-08T02:31:48.909Z,101156.91
2022-12-08T02:37:08.308Z,101151.72
2022-12-08T02:42:37.547Z,101149.06
2022-12-08T02:47:41.133Z,101146.19
2022-12-08T02:52:45.900Z,101131.97
2022-12-08T02:57:47.866Z,101130.28
2022-12-08T03:03:14.500Z,101118.06
2022-12-08T03:08:19.365Z,101109.16
2022-12-08T03:13:29.846Z,101101.97
2022-12-08T03:18:35.503Z,101102.81
2022-12-08T03:23:38.853Z,101108.97
2022-12-08T03:28:41.135Z,101102.16
2022-12-08T03:33:47.279Z,101097.72
2022-12-08T03:38:53.143Z,101097.84
2022-12-08T03:43:58.506Z,101096.00
2022-12-08T03:49:00.462Z,101087.22
2022-12-08T03:54:02.533Z,101093.34
2022-12-08T03:59:06.416Z,101095.06
2022-12-08T04:04:08.291Z,101081.94
2022-12-08T04:09:10.426Z,101079.88
2022-12-08T04:14:12.684Z,101080.09
2022-12-08T04:19:15.499Z,101075.78
2022-12-08T04:24:17.675Z,101076.72
2022-12-08T04:29:19.809Z,101074.06
2022-12-08T04:34:21.850Z,101075.78
2022-12-08T04:39:23.978Z,101068.53
2022-12-08T04:44:25.992Z,101070.22
2022-12-08T04:49:28.167Z,101060.72
2022-12-08T04:54:30.218Z,101043.09
2022-12-08T04:59:32.296Z,101043.09
2022-12-08T05:04:34.328Z,101036.94
2022-12-08T05:09:36.493Z,101035.13
2022-12-08T05:14:38.637Z,101034.19
2022-12-08T05:19:40.727Z,101032.50
2022-12-08T05:24:47.398Z,101042.97
2022-12-08T05:29:50.390Z,101044.06
2022-12-08T05:34:52.356Z,101046.81
2022-12-08T05:39:54.445Z,101057.41
2022-12-08T05:44:56.417Z,101059.13
2022-12-08T05:49:58.431Z,101059.97
2022-12-08T05:55:00.747Z,101058.16
2022-12-08T06:00:03.596Z,101064.19
2022-12-08T06:05:13.689Z,101061.78
2022-12-08T06:10:15.762Z,101045.97
2022-12-08T06:15:17.867Z,101039.81
2022-12-08T06:20:19.914Z,101031.00
2022-12-08T06:25:22.479Z,101026.53
2022-12-08T06:30:24.625Z,101032.81
2022-12-08T06:35:26.941Z,101040.75
2022-12-08T06:40:29.040Z,101039.81
2022-12-08T06:45:31.178Z,101036.31
2022-12-08T06:50:35.289Z,101037.16
2022-12-08T06:55:59.192Z,101037.25
2022-12-08T07:01:11.840Z,101048.72
2022-12-08T07:06:21.727Z,101031.13
2022-12-08T07:11:23.566Z,101039.09
2022-12-08T07:16:25.737Z,101049.69
2022-12-08T07:21:27.842Z,101048.72
2022-12-08T07:26:29.942Z,101050.50
2022-12-08T07:31:32.109Z,101067.41
2022-12-08T07:36:34.231Z,101060.16
2022-12-08T07:41:36.345Z,101056.47
2022-12-08T07:46:38.462Z,101044.16
2022-12-08T07:51:40.492Z,101051.25
2022-12-08T07:56:42.566Z,101061.97
2022-12-08T08:01:45.703Z,101070.78
2022-12-08T08:06:49.341Z,101057.75
2022-12-08T08:12:14.345Z,101061.13
2022-12-08T08:17:13.485Z,101053.06
2022-12-08T08:22:15.662Z,101060.91
2022-12-08T08:27:17.902Z,101061.97
2022-12-08T08:32:20.342Z,101047.88
2022-12-08T08:37:22.379Z,101041.75
2022-12-08T08:42:24.544Z,101058.63
2022-12-08T08:47:26.902Z,101052.34
2022-12-08T08:52:28.964Z,101049.69
2022-12-08T08:57:31.000Z,101055.81
2022-12-08T09:02:33.172Z,101052.22
2022-12-08T09:07:35.303Z,101051.38
2022-12-08T09:12:37.413Z,101048.72
2022-12-08T09:17:39.659Z,101048.84
2022-12-08T09:22:41.744Z,101066.56
2022-12-08T09:27:43.812Z,101057.25
2022-12-08T09:32:45.820Z,101076.31
2022-12-08T09:37:48.649Z,101080.53
2022-12-08T09:43:16.310Z,101081.38
2022-12-08T09:48:32.061Z,101082.25
2022-12-08T09:53:42.300Z,101061.13
2022-12-08T09:58:52.219Z,101051.38
2022-12-08T10:03:56.162Z,101057.00
2022-12-08T10:09:13.057Z,101051.50
2022-12-08T10:14:30.642Z,101048.00
2022-12-08T10:19:34.403Z,101039.41
2022-12-08T10:24:44.121Z,101032.09
2022-12-08T10:29:46.303Z,101017.13
2022-12-08T10:35:21.975Z,101014.47
2022-12-08T10:40:27.190Z,101003.88
2022-12-08T10:45:41.944Z,101004.63
2022-12-08T10:50:45.280Z,101004.47
2022-12-08T10:56:02.745Z,101006.28
2022-12-08T11:01:18.930Z,101000.13
2022-12-08T11:06:31.180Z,100991.34
2022-12-08T11:11:39.572Z,100978.09
2022-12-08T11:16:43.298Z,100963.00
2022-12-08T11:21:45.668Z,100941.69
2022-12-08T11:27:03.222Z,100930.13
2022-12-08T11:32:14.644Z,100924.81
2022-12-08T11:37:31.365Z,100923.13
2022-12-08T11:42:56.335Z,100910.44
2022-12-08T11:48:13.741Z,100923.22
2022-12-08T11:53:25.214Z,100912.50
2022-12-08T11:58:51.689Z,100893.00
2022-12-08T12:04:30.730Z,100893.00
2022-12-08T12:09:59.190Z,100889.38
2022-12-08T12:15:29.162Z,100885.13
2022-12-08T12:20:36.374Z,100887.69
2022-12-08T12:25:45.359Z,100874.31
2022-12-08T12:30:59.421Z,100861.91
2022-12-08T12:36:08.025Z,100860.94
2022-12-08T12:41:12.930Z,100852.25
2022-12-08T12:46:23.974Z,100848.75
2022-12-08T12:51:45.354Z,100857.56
2022-12-08T12:56:51.033Z,100843.34
2022-12-08T13:01:55.996Z,100839.00
2022-12-08T13:06:58.483Z,100818.72
2022-12-08T13:12:09.522Z,100815.97
2022-12-08T13:17:16.056Z,100808.00
2022-12-08T13:22:57.619Z,100786.81
2022-12-08T13:28:22.624Z,100772.69
2022-12-08T13:33:41.412Z,100770.03
2022-12-08T13:38:46.215Z,100783.91
2022-12-08T13:51:10.491Z,100762.81
2022-12-08T13:56:37.286Z,100768.13
2022-12-08T14:00:42.405Z,100760.50
2022-12-08T14:11:07.343Z,100774.03
2022-12-08T14:16:28.646Z,100771.38
2022-12-08T14:21:35.755Z,100761.72
2022-12-08T14:26:38.830Z,100744.84
2022-12-08T14:31:40.812Z,100732.66
2022-12-08T14:36:43.091Z,100744.00
2022-12-08T14:42:01.658Z,100759.91
2022-12-08T14:47:21.154Z,100749.31
2022-12-08T14:52:23.356Z,100733.41
2022-12-08T14:57:33.619Z,100751.13
2022-12-08T15:02:44.619Z,100761.59
2022-12-08T15:07:52.334Z,100743.03
2022-12-08T15:13:09.611Z,100736.03
2022-12-08T15:18:17.237Z,100740.38
2022-12-08T15:23:38.625Z,100728.94
2022-12-08T15:28:40.596Z,100720.88
2022-12-08T15:33:42.660Z,100701.44
2022-12-08T15:38:44.715Z,100701.44
2022-12-08T15:43:46.726Z,100687.22
2022-12-08T15:48:51.389Z,100688.19
2022-12-08T15:53:57.019Z,100682.88
2022-12-08T15:58:59.403Z,100667.72
2022-12-08T16:09:26.805Z,100664.94
2022-12-08T16:19:51.201Z,100651.78
2022-12-08T16:24:53.576Z,100654.44
2022-12-08T16:29:56.793Z,100644.66
2022-12-08T16:34:58.856Z,100636.59
2022-12-08T16:40:01.193Z,100644.56
2022-12-08T16:45:09.088Z,100641.81
2022-12-08T16:50:17.706Z,100633.72
2022-12-08T16:55:19.953Z,100649.94
2022-12-08T17:00:24.682Z,100654.44
2022-12-08T17:05:27.087Z,100645.50
2022-12-08T17:10:32.195Z,100652.53
2022-12-08T17:15:34.490Z,100656.03
2022-12-08T17:20:36.683Z,100652.41
2022-12-08T17:25:38.736Z,100652.53
2022-12-08T17:30:40.716Z,100661.31
2022-12-08T17:35:51.607Z,100653.38
2022-12-08T17:40:58.451Z,100654.34
2022-12-08T17:46:00.903Z,100644.56
2022-12-08T17:51:03.022Z,100649.88
2022-12-08T17:56:05.496Z,100644.44
2022-12-08T18:01:09.905Z,100640.00
2022-12-08T18:06:12.910Z,100626.72
2022-12-08T18:11:19.152Z,100626.00
2022-12-08T18:16:23.172Z,100625.03
2022-12-08T18:21:25.410Z,100633.97
2022-12-08T18:26:27.806Z,100647.22
2022-12-08T18:31:29.953Z,100631.31
2022-12-08T18:36:32.022Z,100640.19
2022-12-08T18:41:34.099Z,100631.31
2022-12-08T18:46:36.122Z,100639.25
2022-12-08T18:51:38.391Z,100625.03
2022-12-08T18:56:40.820Z,100618.88
2022-12-08T19:01:43.009Z,100610.94
2022-12-08T19:06:45.813Z,100615.16
2022-12-08T19:11:47.858Z,100610.69
2022-12-08T19:16:50.385Z,100617.81
2022-12-08T19:21:52.492Z,100606.47
2022-12-08T19:26:54.700Z,100601.16
2022-12-08T19:31:56.845Z,100583.34
2022-12-08T19:36:58.793Z,100574.53
2022-12-08T19:42:19.880Z,100569.09
2022-12-08T19:47:26.565Z,100565.84
2022-12-08T19:52:28.519Z,100551.75
2022-12-08T19:57:30.531Z,100551.75
2022-12-08T20:02:32.745Z,100546.44
2022-12-08T20:07:35.478Z,100546.44
2022-12-08T20:12:37.609Z,100550.88
2022-12-08T20:17:39.795Z,100523.50
2022-12-08T20:22:41.858Z,100527.03
2022-12-08T20:27:43.904Z,100520.75
2022-12-08T20:32:46.072Z,100513.75
2022-12-08T20:37:48.190Z,100523.28
2022-12-08T20:42:50.234Z,100517.88
2022-12-08T20:47:52.390Z,100535.44
2022-12-08T20:52:54.847Z,100540.88
2022-12-08T20:57:57.053Z,100546.31
2022-12-08T21:02:59.271Z,100527.75
2022-12-08T21:08:01.639Z,100522.31
2022-12-08T21:13:03.949Z,100510.75
2022-12-08T21:18:05.999Z,100495.81
2022-12-08T21:23:08.984Z,100506.41
2022-12-08T21:28:11.751Z,100506.53
2022-12-08T21:33:13.963Z,100508.22
2022-12-08T21:38:16.136Z,100511.00
2022-12-08T21:43:18.147Z,100513.63
2022-12-08T21:48:20.217Z,100507.38
2022-12-08T21:53:23.070Z,100515.22
2022-12-08T21:58:26.435Z,100499.28
2022-12-08T22:03:30.076Z,100503.03
2022-12-08T22:08:32.427Z,100510.16
2022-12-08T22:13:35.994Z,100498.47
2022-12-08T22:18:38.275Z,100496.66
2022-12-08T22:23:40.406Z,100484.22
2022-12-08T22:28:43.433Z,100476.28
2022-12-08T22:33:45.418Z,100467.47
2022-12-08T22:38:47.953Z,100474.59
2022-12-08T22:43:50.765Z,100481.69
2022-12-08T22:48:54.284Z,100472.06
2022-12-08T22:53:56.237Z,100468.31
2022-12-08T22:58:58.527Z,100455.06
2022-12-08T23:04:01.546Z,100448.75
2022-12-08T23:09:03.932Z,100445.53
2022-12-08T23:14:06.125Z,100447.22
2022-12-08T23:19:08.643Z,100437.44
2022-12-08T23:24:10.822Z,100437.56
2022-12-08T23:29:12.950Z,100412.84
2022-12-08T23:34:15.026Z,100426.13
2022-12-08T23:39:17.226Z,100404.91
2022-12-08T23:44:19.280Z,100393.31
2022-12-08T23:49:22.930Z,100386.09
2022-12-08T23:54:24.870Z,100369.34
2022-12-08T23:59:26.926Z,100377.97
